Weather observations for the past three days for
Jones Field - Bonham
Imperial (Metric)
Date Time (cdt) Wind (mph) Vis. (mi.) Weather Sky Cond. Temperature (ºF) Relative Humidity Wind Chill (°F) Heat Index (°F) Pressure Precipitation (in)
Air Dwpt 6 hour altimeter (in) sea level (mb) 1 hr 3 hr 6 hr
Max. Min.
05 22:15 N 7 10.00 Overcast OVC031 59 51.8 77% 29.8 0.0
05 21:55 N 9 10.00 Overcast SCT016 OVC031 59 51.8 77% 29.78 0.0
05 21:35 NW 8 10.00 Mostly Cloudy SCT016 BKN033 60.8 53.6 77% 29.77 0.0
05 21:15 N 12 G 16 10.00 Partly Cloudy SCT035 60.8 53.6 77% 29.76 0.0
05 20:55 N 8 10.00 Fair CLR 62.6 55.4 77% 29.75 0.0
05 20:35 N 13 G 18 10.00 Fair CLR 64.4 55.4 73% 29.74 0.0
05 20:15 N 12 10.00 Partly Cloudy SCT041 68 59 73% 29.73 0.0
05 19:55 N 10 10.00 Partly Cloudy SCT041 69.8 60.8 73% 29.71 0.0
05 19:35 NW 12 10.00 Partly Cloudy SCT045 71.6 60.8 69% 29.7 0.0
05 19:15 NW 12 G 17 10.00 Partly Cloudy SCT045 73.4 62.6 69% 29.7 0.0
05 18:55 NW 12 G 17 10.00 Fair CLR 77 62.6 61% 79 29.67 0.0
05 18:35 NW 8 10.00 Fair CLR 77 60.8 57% 79 29.66 0.0
05 18:15 NW 12 G 16 10.00 Fair CLR 78.8 59 51% 80 29.66 0.0
05 17:55 NW 9 10.00 Partly Cloudy SCT049 78.8 59 51% 80 29.66 0.0
05 17:35 NW 9 10.00 Mostly Cloudy BKN049 82.4 60.8 48% 83 29.65 0.0
05 17:15 SW 9 10.00 Partly Cloudy SCT049 84.2 68 58% 87 29.64 0.0
05 16:55 SW 12 10.00 Partly Cloudy SCT049 84.2 66.2 55% 87 29.64 0.0
05 16:35 SW 13 10.00 Partly Cloudy SCT047 86 66.2 52% 88 29.65 0.0
05 16:15 SW 15 10.00 Mostly Cloudy BKN043 87.8 69.8 55% 93 29.65 0.0
05 15:55 S 9 10.00 Mostly Cloudy BKN043 86 69.8 59% 91 29.65 0.0
05 15:35 S 12 10.00 Mostly Cloudy SCT041 BKN048 84.2 68 58% 87 29.66 0.0
05 15:15 SW 12 G 20 10.00 Partly Cloudy SCT039 86 69.8 59% 91 29.66 0.0
05 14:55 S 12 10.00 Fair CLR 82.4 68 62% 85 29.66 0.0
05 14:35 S 16 G 20 10.00 Fair CLR 82.4 68 62% 85 29.66 0.0
05 14:15 SW 18 G 22 10.00 Fair CLR 82.4 68 62% 85 29.66 0.0
05 13:55 SW 17 10.00 Partly Cloudy SCT037 82.4 68 62% 85 29.66 0.0
05 13:35 SW 17 G 22 10.00 Partly Cloudy SCT032 84.2 68 58% 87 29.67 0.0
05 13:15 S 17 10.00 Partly Cloudy SCT029 SCT037 80.6 68 66% 83 29.67 0.0
05 12:55 S 21 G 25 10.00 Fair and Breezy CLR 80.6 69.8 70% 84 29.67 0.0
05 12:35 SW 18 G 28 10.00 Partly Cloudy SCT022 80.6 69.8 70% 84 29.67 0.0
05 12:15 S 18 G 23 10.00 Fair CLR 78.8 68 70% 81 29.66 0.0
05 11:55 S 16 10.00 Partly Cloudy SCT021 77 68 74% 79 29.66 0.0
05 11:35 SW 17 G 30 10.00 Partly Cloudy SCT021 77 68 74% 79 29.68 0.0
05 11:15 S 22 G 30 10.00 Mostly Cloudy and Breezy BKN021 77 68 74% 79 29.66 0.0
05 10:35 SW 21 G 28 10.00 Overcast and Breezy OVC021 75.2 66.2 74% 77 29.66 0.0
05 10:15 S 17 G 29 10.00 Overcast BKN019 OVC025 75.2 66.2 74% 77 29.66 0.0
05 09:55 SW 23 G 28 10.00 Mostly Cloudy and Breezy BKN019 73.4 66.2 78% 29.66 0.0
05 09:35 S 20 G 26 10.00 Mostly Cloudy BKN019 BKN023 73.4 66.2 78% 29.66 0.0
05 09:15 S 17 G 28 10.00 Mostly Cloudy BKN017 73.4 66.2 78% 29.66 0.0
05 08:55 S 16 G 28 10.00 Mostly Cloudy BKN017 73.4 66.2 78% 29.65 0.0
05 08:35 S 17 G 22 10.00 Partly Cloudy SCT017 71.6 66.2 83% 29.65 0.0
05 08:15 S 17 G 26 10.00 Partly Cloudy SCT015 71.6 66.2 83% 29.65 0.0
05 07:55 S 15 G 21 10.00 Partly Cloudy SCT017 69.8 66.2 88% 29.64 0.0
05 07:35 S 15 G 25 10.00 Mostly Cloudy BKN017 69.8 66.2 88% 29.64 0.0
05 07:15 S 17 G 23 10.00 Overcast OVC017 69.8 66.2 88% 29.64 0.0
05 06:55 S 15 G 24 10.00 Mostly Cloudy BKN017 69.8 66.2 88% 29.64 0.0
05 06:35 S 16 G 25 10.00 Fair CLR 69.8 66.2 88% 29.63 0.0
05 06:15 S 18 G 24 10.00 Fair CLR 69.8 66.2 88% 29.62 0.0
05 05:55 S 20 G 26 10.00 Partly Cloudy SCT017 69.8 66.2 88% 29.62 0.0
05 05:35 S 18 G 31 10.00 Partly Cloudy SCT017 69.8 66.2 88% 29.63 0.0
05 05:15 S 24 G 30 10.00 Mostly Cloudy and Breezy BKN017 69.8 66.2 88% 29.62 0.0
05 04:55 S 22 G 29 10.00 Overcast and Breezy BKN017 OVC021 69.8 66.2 88% 29.63 0.0
05 04:35 S 20 G 26 10.00 Overcast OVC017 69.8 64.4 83% 29.63 0.0
05 04:15 S 18 10.00 Mostly Cloudy BKN017 69.8 64.4 83% 29.64 0.0
05 03:55 S 21 G 26 10.00 Mostly Cloudy and Breezy BKN017 69.8 64.4 83% 29.63 0.0
05 03:35 S 17 G 28 10.00 Partly Cloudy SCT019 69.8 64.4 83% 29.64 0.0
05 03:15 S 20 G 26 10.00 Partly Cloudy SCT019 71.6 64.4 78% 29.64 0.0
05 02:55 S 20 G 26 10.00 Fair CLR 71.6 64.4 78% 29.65 0.0
05 02:35 S 20 G 30 10.00 Fair CLR 71.6 64.4 78% 29.65 0.0
05 02:15 S 20 G 30 10.00 Fair CLR 71.6 64.4 78% 29.66 0.0
05 01:55 S 17 G 25 10.00 Fair CLR 71.6 62.6 73% 29.66 0.0
05 01:35 S 22 10.00 Fair and Breezy CLR 71.6 62.6 73% 29.67 0.0
05 01:15 S 21 G 30 10.00 Fair and Breezy CLR 71.6 62.6 73% 29.67 0.0
05 00:55 S 20 G 26 10.00 Fair CLR 71.6 62.6 73% 29.68 0.0
05 00:35 S 16 G 24 10.00 Fair CLR 71.6 62.6 73% 29.68 0.0
05 00:15 S 14 G 20 10.00 Fair CLR 71.6 62.6 73% 29.69 0.0
04 23:55 S 17 G 24 10.00 Fair CLR 71.6 60.8 69% 29.69 0.0
04 23:35 S 21 G 26 10.00 Fair and Breezy CLR 71.6 60.8 69% 29.69 0.0
04 23:15 S 22 10.00 Fair and Breezy CLR 71.6 60.8 69% 29.69 0.0
04 22:55 S 18 10.00 Fair CLR 71.6 60.8 69% 29.7 0.0
04 22:35 S 18 G 23 10.00 Fair CLR 71.6 60.8 69% 29.71 0.0
04 22:15 S 15 10.00 Fair CLR 71.6 60.8 69% 29.71 0.0
04 21:55 S 13 10.00 Fair CLR 73.4 60.8 65% 29.71 0.0
04 21:35 S 13 G 21 10.00 Fair CLR 73.4 60.8 65% 29.71 0.0
04 21:15 S 13 G 20 10.00 Fair CLR 73.4 60.8 65% 29.71 0.0
04 20:55 S 14 G 18 10.00 Fair CLR 73.4 60.8 65% 29.7 0.0
04 20:35 S 14 G 18 10.00 Fair CLR 73.4 60.8 65% 29.7 0.0
04 20:15 S 14 G 18 10.00 Fair CLR 73.4 60.8 65% 29.69 0.0
04 19:55 S 17 G 24 10.00 Fair CLR 75.2 59 57% 78 29.7 0.0
04 19:35 S 16 G 24 10.00 Fair CLR 77 59 54% 79 29.7 0.0
04 19:15 S 16 G 23 10.00 Fair CLR 77 59 54% 79 29.7 0.0
04 18:55 S 15 G 30 10.00 Fair CLR 77 59 54% 79 29.71 0.0
04 18:35 S 20 G 25 10.00 Fair CLR 78.8 59 51% 80 29.71 0.0
04 18:15 S 15 G 26 10.00 Fair CLR 78.8 59 51% 80 29.72 0.0
04 17:55 S 23 G 36 10.00 Fair and Breezy CLR 78.8 59 51% 80 29.73 0.0
04 17:35 S 22 G 32 10.00 Fair and Breezy CLR 78.8 57.2 48% 80 29.72 0.0
04 17:15 S 18 G 32 10.00 Fair CLR 80.6 57.2 45% 81 29.73 0.0
04 16:55 S 21 G 29 10.00 Fair and Breezy CLR 78.8 57.2 48% 80 29.73 0.0
04 16:35 S 24 G 30 10.00 Fair and Breezy CLR 80.6 55.4 42% 81 29.75 0.0
04 16:15 S 17 G 29 10.00 Fair CLR 80.6 55.4 42% 81 29.76 0.0
04 15:55 S 15 G 31 10.00 Fair CLR 80.6 55.4 42% 81 29.77 0.0
04 15:35 S 18 G 32 10.00 Fair CLR 80.6 55.4 42% 81 29.78 0.0
04 15:15 S 21 G 28 10.00 Fair and Breezy CLR 80.6 55.4 42% 81 29.79 0.0
04 14:55 S 23 G 32 10.00 Fair and Breezy CLR 78.8 53.6 42% 79 29.81 0.0
04 14:35 S 16 G 23 10.00 Fair CLR 77 55.4 47% 79 29.82 0.0
04 14:15 S 17 G 31 10.00 Fair CLR 78.8 55.4 45% 79 29.82 0.0
04 13:55 S 22 G 32 10.00 Fair and Breezy CLR 77 53.6 44% 78 29.83 0.0
04 13:35 S 17 G 28 10.00 Fair CLR 77 55.4 47% 79 29.84 0.0
04 13:15 S 17 G 26 10.00 Fair CLR 77 53.6 44% 78 29.85 0.0
04 12:55 S 21 G 30 10.00 Fair and Breezy CLR 75.2 53.6 47% 78 29.86 0.0
04 12:35 S 22 G 29 10.00 Fair and Breezy CLR 75.2 51.8 44% 78 29.87 0.0
04 12:15 S 21 G 28 10.00 Fair and Breezy CLR 75.2 51.8 44% 78 29.88 0.0
04 11:55 S 22 G 30 10.00 Fair and Breezy CLR 75.2 51.8 44% 78 29.89 0.0
04 11:35 SW 22 G 28 10.00 Fair and Breezy CLR 75.2 51.8 44% 78 29.9 0.0
04 11:15 S 20 G 30 10.00 Fair CLR 73.4 51.8 47% 29.89 0.0
04 10:55 S 23 G 39 10.00 Fair and Breezy CLR 71.6 50 47% 29.9 0.0
04 10:35 S 28 G 38 10.00 Fair and Windy CLR 71.6 50 47% 29.91 0.0
04 10:15 S 18 G 33 10.00 Partly Cloudy SCT110 71.6 51.8 50% 29.9 0.0
04 09:55 S 18 G 35 10.00 Partly Cloudy SCT110 69.8 51.8 53% 29.91 0.0
04 09:35 S 18 G 26 10.00 Fair CLR 68 53.6 60% 29.91 0.0
04 09:15 S 20 G 28 10.00 Fair CLR 66.2 53.6 64% 29.91 0.0
04 08:55 S 18 G 24 10.00 Fair CLR 64.4 53.6 68% 29.91 0.0
04 08:35 S 17 10.00 Fair CLR 64.4 53.6 68% 29.91 0.0
04 08:15 S 15 G 22 10.00 Fair CLR 62.6 53.6 73% 29.91 0.0
04 07:55 S 16 10.00 Fair CLR 62.6 51.8 68% 29.91 0.0
04 07:35 S 13 10.00 Fair CLR 60.8 51.8 72% 29.91 0.0
04 06:55 S 12 10.00 Fair CLR 59 51.8 77% 29.91 0.0
04 06:35 S 14 10.00 Fair CLR 59 51.8 77% 29.9 0.0
04 06:15 S 13 10.00 Fair CLR 60.8 51.8 72% 29.9 0.0
04 05:55 S 15 10.00 Fair CLR 60.8 51.8 72% 29.9 0.0
04 05:35 S 14 10.00 Fair CLR 59 50 72% 29.91 0.0
04 05:15 S 14 10.00 Fair CLR 59 50 72% 29.9 0.0
04 04:55 S 12 G 16 10.00 Fair CLR 59 50 72% 29.9 0.0
04 04:35 S 10 10.00 Fair CLR 59 48.2 68% 29.91 0.0
04 04:15 S 9 10.00 Fair CLR 59 48.2 68% 29.92 0.0
04 03:55 S 9 10.00 Fair CLR 60.8 48.2 63% 29.92 0.0
04 03:35 S 10 10.00 Fair CLR 60.8 48.2 63% 29.93 0.0
04 03:15 S 10 10.00 Fair CLR 60.8 48.2 63% 29.93 0.0
04 02:55 S 12 10.00 Fair CLR 60.8 48.2 63% 29.93 0.0
04 02:35 S 10 10.00 Fair CLR 62.6 48.2 60% 29.94 0.0
04 02:10 S 10 10.00 Fair CLR 62.6 48.2 60% 29.95 0.0
04 01:55 S 10 10.00 Fair CLR 62.6 48.2 60% 29.96 0.0
04 01:35 S 10 10.00 Fair CLR 62.6 48.2 60% 29.96 0.0
04 01:15 S 9 10.00 Fair CLR 62.6 48.2 60% 29.97 0.0
04 00:55 S 8 10.00 Fair CLR 62.6 48.2 60% 29.98 0.0
04 00:35 S 9 10.00 Fair CLR 62.6 48.2 60% 29.98 0.0
04 00:15 S 9 10.00 Fair CLR 62.6 48.2 60% 29.98 0.0
03 23:55 S 8 10.00 Fair CLR 62.6 48.2 60% 29.99 0.0
03 23:35 S 8 10.00 Fair CLR 62.6 48.2 60% 29.99 0.0
03 23:15 S 9 10.00 Fair CLR 64.4 48.2 56% 29.99 0.0
03 22:55 S 10 10.00 Fair CLR 64.4 48.2 56% 30 0.0
03 22:35 S 9 10.00 Fair CLR 64.4 48.2 56% 29.99 0.0
03 22:15 S 9 10.00 Fair CLR 66.2 48.2 52% 29.99 0.0
03 21:55 S 9 10.00 Fair CLR 66.2 48.2 52% 29.99 0.0
03 21:35 S 9 10.00 Fair CLR 66.2 48.2 52% 29.99 0.0
03 21:15 S 9 10.00 Fair CLR 68 48.2 49% 29.98 0.0
03 20:55 S 9 10.00 Fair CLR 68 48.2 49% 29.98 0.0
03 20:35 S 9 10.00 Fair CLR 69.8 48.2 46% 29.98 0.0
03 20:15 S 8 10.00 Fair CLR 71.6 48.2 44% 29.98 0.0
03 19:55 S 10 10.00 Fair CLR 73.4 46.4 38% 29.97 0.0
03 19:35 S 10 10.00 Fair CLR 75.2 46.4 36% 77 29.97 0.0
03 19:15 S 12 G 18 10.00 Fair CLR 77 44.6 32% 78 29.97 0.0
03 18:55 S 15 10.00 Fair CLR 77 44.6 32% 78 29.98 0.0
03 18:35 S 14 G 20 10.00 Fair CLR 78.8 44.6 30% 79 29.98 0.0
03 18:15 S 12 10.00 Partly Cloudy SCT085 80.6 46.4 30% 80 29.98 0.0
03 17:55 S 13 G 20 10.00 Partly Cloudy SCT085 80.6 46.4 30% 80 29.99 0.0
03 17:35 S 14 10.00 Partly Cloudy SCT085 80.6 46.4 30% 80 29.99 0.0
03 17:15 S 13 10.00 Partly Cloudy SCT085 80.6 46.4 30% 80 29.99 0.0
03 16:55 SW 9 G 20 10.00 Fair CLR 80.6 44.6 28% 79 30 0.0
03 16:35 SW 14 G 21 10.00 Partly Cloudy SCT080 82.4 44.6 26% 81 30.01 0.0
03 16:15 SW 14 10.00 Partly Cloudy SCT080 80.6 48.2 32% 80 30.01 0.0
03 15:55 SW 14 10.00 Partly Cloudy SCT080 82.4 46.4 28% 81 30.02 0.0
03 15:35 SW 10 G 20 10.00 Partly Cloudy SCT080 82.4 48.2 30% 81 30.03 0.0
03 15:15 SW 12 10.00 Mostly Cloudy BKN080 82.4 50 32% 81 30.04 0.0
03 14:55 SW 14 G 21 10.00 Mostly Cloudy BKN080 80.6 48.2 32% 80 30.05 0.0
03 14:35 W 13 G 21 10.00 Mostly Cloudy BKN080 78.8 48.2 34% 79 30.06 0.0
03 14:15 W 10 G 20 10.00 Partly Cloudy SCT070 80.6 50 34% 80 30.07 0.0
03 13:55 SW 10 G 18 10.00 Partly Cloudy SCT070 80.6 50 34% 80 30.08 0.0
03 13:35 SW 17 10.00 Fair CLR 80.6 51.8 37% 80 30.08 0.0
03 13:15 SW 13 G 20 10.00 Fair CLR 80.6 51.8 37% 80 30.1 0.0
03 12:55 SW 15 G 20 10.00 Fair CLR 78.8 50 37% 79 30.11 0.0
03 12:35 W 9 10.00 Fair CLR 78.8 51.8 39% 79 30.12 0.0
03 12:15 SW 16 10.00 Fair CLR 78.8 48.2 34% 79 30.13 0.0
03 11:55 SW 15 10.00 Fair CLR 77 50 39% 78 30.13 0.0
03 11:35 W 13 10.00 Fair CLR 77 51.8 42% 78 30.13 0.0
03 11:15 SW 16 G 23 10.00 Fair CLR 75.2 50 41% 78 30.14 0.0
03 10:55 SW 12 10.00 Fair CLR 75.2 51.8 44% 78 30.14 0.0
03 10:35 SW 12 G 21 10.00 Fair CLR 73.4 51.8 47% 30.14 0.0
03 10:15 SW 13 10.00 Fair CLR 73.4 50 44% 30.14 0.0
03 09:55 SW 12 10.00 Fair CLR 71.6 50 47% 30.14 0.0
03 09:35 SW 13 10.00 Fair CLR 69.8 50 50% 30.14 0.0
03 09:15 SW 8 10.00 Fair CLR 68 51.8 56% 30.14 0.0
03 08:55 SW 9 10.00 Fair CLR 66.2 51.8 60% 30.14 0.0
03 08:35 SW 10 10.00 Fair CLR 62.6 51.8 68% 30.14 0.0
03 08:15 SW 8 10.00 Fair CLR 60.8 50 68% 30.14 0.0
03 07:55 S 7 10.00 Fair CLR 57.2 50 77% 30.14 0.0
03 07:35 S 8 10.00 Fair CLR 55.4 48.2 77% 30.13 0.0
03 07:15 SW 7 10.00 Fair CLR 53.6 48.2 82% 30.13 0.0
03 06:55 S 6 10.00 Fair CLR 51.8 46.4 82% 30.12 0.0
03 06:35 S 7 10.00 Fair CLR 51.8 46.4 82% 30.12 0.0
03 06:15 S 7 10.00 Fair CLR 51.8 46.4 82% 30.12 0.0
03 05:35 S 6 10.00 Fair CLR 51.8 46.4 82% 30.11 0.0
03 05:15 S 6 10.00 Fair CLR 51.8 46.4 82% 30.11 0.0
03 04:55 S 6 10.00 Fair CLR 53.6 46.4 77% 30.12 0.0
03 04:35 S 5 10.00 Fair CLR 53.6 46.4 77% 30.12 0.0
03 04:15 S 5 10.00 Fair CLR 53.6 46.4 77% 30.12 0.0
03 03:55 S 5 10.00 Fair CLR 53.6 46.4 77% 30.12 0.0
03 03:35 S 5 10.00 Fair CLR 53.6 46.4 77% 30.11 0.0
03 03:15 S 6 10.00 Fair CLR 53.6 46.4 77% 30.11 0.0
03 02:55 S 5 10.00 Fair CLR 53.6 46.4 77% 30.12 0.0
03 02:35 S 6 10.00 Fair CLR 55.4 46.4 72% 30.12 0.0
03 02:15 S 6 10.00 Fair CLR 55.4 46.4 72% 30.12 0.0
03 01:55 S 5 10.00 Fair CLR 53.6 48.2 82% 30.12 0.0
03 01:35 S 6 10.00 Fair CLR 55.4 48.2 77% 30.12 0.0
03 01:15 S 5 10.00 Fair CLR 57.2 48.2 72% 30.12 0.0
03 00:55 S 3 10.00 Fair CLR 57.2 48.2 72% 30.12 0.0
03 00:35 Calm 10.00 Fair CLR 57.2 48.2 72% 30.12 0.0
03 00:15 S 3 10.00 Fair CLR 57.2 48.2 72% 30.12 0.0
02 23:55 S 5 10.00 Fair CLR 57.2 48.2 72% 30.12 0.0
02 23:35 S 5 10.00 Fair CLR 57.2 48.2 72% 30.11 0.0
02 23:15 S 5 10.00 Fair CLR 57.2 48.2 72% 30.11 0.0
02 22:55 Calm 10.00 Fair CLR 59 48.2 68% 30.11 0.0
02 22:35 Calm 10.00 Fair CLR 59 50 72% 30.11 0.0
Date Time (cdt) Wind (mph) Vis. (mi.) Weather Sky Cond. Air Dwpt Max. Min. Relative Humidity Wind Chill (°F) Heat Index (°F) altimeter (in) sea level (mb) 1 hr 3 hr 6 hr
6 hour
Temperature (ºF) Pressure Precipitation (in)